sensor_id;sensor_type;location;lat;lon;timestamp;P1;P2;P0
62778;PMS7003;48821;48.796;2.396;2022-11-20T08:55:29;13.75;10.00;7.00
62778;PMS7003;48821;48.796;2.396;2022-11-20T08:56:39;13.50;11.50;8.50
62778;PMS7003;48821;48.796;2.396;2022-11-20T08:57:49;11.50;10.00;8.00
62778;PMS7003;48821;48.796;2.396;2022-11-20T08:59:00;13.00;11.00;8.00
62778;PMS7003;48821;48.796;2.396;2022-11-20T09:00:10;13.50;10.00;8.25
62778;PMS7003;48821;48.796;2.396;2022-11-20T09:01:30;8.75;8.75;7.25
62778;PMS7003;48821;48.796;2.396;2022-11-20T09:02:41;16.25;12.00;10.00
62778;PMS7003;48821;48.796;2.396;2022-11-20T09:03:51;10.00;9.00;7.00
62778;PMS7003;48821;48.796;2.396;2022-11-20T09:05:02;12.50;10.75;9.00
62778;PMS7003;48821;48.796;2.396;2022-11-20T09:06:13;12.50;11.75;9.50
62778;PMS7003;48821;48.796;2.396;2022-11-20T09:07:24;14.50;12.00;8.75
62778;PMS7003;48821;48.796;2.396;2022-11-20T09:08:34;14.75;12.00;9.75
62778;PMS7003;48821;48.796;2.396;2022-11-20T09:09:46;13.75;11.50;8.75
62778;PMS7003;48821;48.796;2.396;2022-11-20T09:10:56;10.00;10.00;8.00
62778;PMS7003;48821;48.796;2.396;2022-11-20T09:12:07;14.00;12.25;9.25
62778;PMS7003;48821;48.796;2.396;2022-11-20T09:13:18;11.00;8.25;7.25
62778;PMS7003;48821;48.796;2.396;2022-11-20T09:14:29;14.00;11.00;8.00
62778;PMS7003;48821;48.796;2.396;2022-11-20T09:15:40;10.75;10.50;8.00
62778;PMS7003;48821;48.796;2.396;2022-11-20T09:16:50;15.00;12.25;9.00
62778;PMS7003;48821;48.796;2.396;2022-11-20T09:18:01;13.00;12.00;9.00
62778;PMS7003;48821;48.796;2.396;2022-11-20T09:19:14;12.00;11.25;9.00
62778;PMS7003;48821;48.796;2.396;2022-11-20T09:20:25;14.50;12.75;9.25
62778;PMS7003;48821;48.796;2.396;2022-11-20T09:21:36;15.50;10.75;8.50
62778;PMS7003;48821;48.796;2.396;2022-11-20T09:22:47;12.50;12.00;9.25
62778;PMS7003;48821;48.796;2.396;2022-11-20T09:23:58;12.00;11.25;8.00
62778;PMS7003;48821;48.796;2.396;2022-11-20T09:25:08;14.00;11.25;9.50
62778;PMS7003;48821;48.796;2.396;2022-11-20T09:26:18;10.50;10.25;9.00
62778;PMS7003;48821;48.796;2.396;2022-11-20T09:27:29;13.50;13.50;10.50
62778;PMS7003;48821;48.796;2.396;2022-11-20T09:28:39;14.00;12.25;8.75
62778;PMS7003;48821;48.796;2.396;2022-11-20T09:29:50;11.75;11.00;8.75
62778;PMS7003;48821;48.796;2.396;2022-11-20T09:31:00;12.50;12.50;9.00
62778;PMS7003;48821;48.796;2.396;2022-11-20T09:32:15;14.50;11.00;8.75
62778;PMS7003;48821;48.796;2.396;2022-11-20T09:33:26;9.50;9.00;7.00
62778;PMS7003;48821;48.796;2.396;2022-11-20T09:34:37;12.00;10.50;8.25
62778;PMS7003;48821;48.796;2.396;2022-11-20T09:35:47;11.00;10.75;9.00
62778;PMS7003;48821;48.796;2.396;2022-11-20T09:36:57;10.00;9.00;7.25
62778;PMS7003;48821;48.796;2.396;2022-11-20T09:38:08;12.00;12.00;9.25
62778;PMS7003;48821;48.796;2.396;2022-11-20T09:39:20;16.50;12.50;9.25
62778;PMS7003;48821;48.796;2.396;2022-11-20T09:40:30;12.50;8.75;6.50
62778;PMS7003;48821;48.796;2.396;2022-11-20T09:43:15;14.50;10.25;8.00
62778;PMS7003;48821;48.796;2.396;2022-11-20T09:46:17;12.25;12.25;9.25
62778;PMS7003;48821;48.796;2.396;2022-11-20T09:54:18;10.50;9.50;7.75
62778;PMS7003;48821;48.796;2.396;2022-11-20T09:55:30;12.50;12.00;9.00
62778;PMS7003;48821;48.796;2.396;2022-11-20T09:56:42;10.50;9.00;7.00
62778;PMS7003;48821;48.796;2.396;2022-11-20T09:58:13;7.50;7.50;6.00
62778;PMS7003;48821;48.796;2.396;2022-11-20T09:59:34;10.50;10.00;8.00
62778;PMS7003;48821;48.796;2.396;2022-11-20T10:00:50;13.50;9.00;6.00
62778;PMS7003;48821;48.796;2.396;2022-11-20T10:02:08;12.00;10.50;8.50
62778;PMS7003;48821;48.796;2.396;2022-11-20T10:03:37;12.25;10.00;7.00
62778;PMS7003;48821;48.796;2.396;2022-11-20T10:07:48;9.75;7.25;5.00
62778;PMS7003;48821;48.796;2.396;2022-11-20T10:09:35;10.75;8.25;6.25
62778;PMS7003;48821;48.796;2.396;2022-11-20T10:10:50;15.75;9.25;7.00
62778;PMS7003;48821;48.796;2.396;2022-11-20T10:12:27;10.50;8.50;6.25
62778;PMS7003;48821;48.796;2.396;2022-11-20T10:14:21;13.50;10.50;8.00
62778;PMS7003;48821;48.796;2.396;2022-11-20T10:17:17;11.00;8.75;7.00
62778;PMS7003;48821;48.796;2.396;2022-11-20T10:18:42;10.25;7.75;6.00
62778;PMS7003;48821;48.796;2.396;2022-11-20T10:21:25;6.50;5.00;4.00
62778;PMS7003;48821;48.796;2.396;2022-11-20T10:24:34;9.25;9.25;7.25
62778;PMS7003;48821;48.796;2.396;2022-11-20T10:26:55;13.25;12.25;9.50
62778;PMS7003;48821;48.796;2.396;2022-11-20T10:30:26;13.25;10.00;7.25
62778;PMS7003;48821;48.796;2.396;2022-11-20T10:31:40;8.75;8.75;6.50
62778;PMS7003;48821;48.796;2.396;2022-11-20T10:32:54;11.25;11.00;8.00
62778;PMS7003;48821;48.796;2.396;2022-11-20T10:34:23;8.75;8.25;6.75
62778;PMS7003;48821;48.796;2.396;2022-11-20T10:35:41;11.50;9.00;7.25
62778;PMS7003;48821;48.796;2.396;2022-11-20T10:37:00;9.00;9.00;6.75
62778;PMS7003;48821;48.796;2.396;2022-11-20T10:38:28;13.25;9.00;8.00
62778;PMS7003;48821;48.796;2.396;2022-11-20T10:41:05;10.25;10.00;7.25
62778;PMS7003;48821;48.796;2.396;2022-11-20T10:42:41;10.00;8.00;8.00
62778;PMS7003;48821;48.796;2.396;2022-11-20T10:44:14;10.25;9.00;7.75
62778;PMS7003;48821;48.796;2.396;2022-11-20T10:47:14;12.00;10.75;8.00
62778;PMS7003;48821;48.796;2.396;2022-11-20T10:48:26;9.25;9.25;7.00
62778;PMS7003;48821;48.796;2.396;2022-11-20T10:49:38;8.50;7.00;5.00
62778;PMS7003;48821;48.796;2.396;2022-11-20T10:52:23;9.00;9.00;8.00
62778;PMS7003;48821;48.796;2.396;2022-11-20T10:54:22;9.75;8.00;6.00
62778;PMS7003;48821;48.796;2.396;2022-11-20T10:55:54;8.50;7.25;6.00
62778;PMS7003;48821;48.796;2.396;2022-11-20T10:57:17;10.75;9.50;8.25
62778;PMS7003;48821;48.796;2.396;2022-11-20T11:00:11;12.25;10.75;8.75
62778;PMS7003;48821;48.796;2.396;2022-11-20T11:01:23;9.50;9.50;6.50
62778;PMS7003;48821;48.796;2.396;2022-11-20T11:02:35;12.00;9.75;7.50
62778;PMS7003;48821;48.796;2.396;2022-11-20T11:03:50;14.00;12.00;9.25
62778;PMS7003;48821;48.796;2.396;2022-11-20T11:05:11;11.00;11.00;9.00
62778;PMS7003;48821;48.796;2.396;2022-11-20T11:07:54;11.25;10.50;8.00
62778;PMS7003;48821;48.796;2.396;2022-11-20T11:09:10;10.25;9.00;7.00
62778;PMS7003;48821;48.796;2.396;2022-11-20T11:10:32;12.25;11.00;9.00
62778;PMS7003;48821;48.796;2.396;2022-11-20T11:11:51;8.50;8.25;7.00
62778;PMS7003;48821;48.796;2.396;2022-11-20T11:13:01;10.25;9.00;7.00
62778;PMS7003;48821;48.796;2.396;2022-11-20T11:14:12;9.75;9.75;7.75
62778;PMS7003;48821;48.796;2.396;2022-11-20T11:15:38;11.00;9.00;7.25
62778;PMS7003;48821;48.796;2.396;2022-11-20T11:16:51;11.00;10.25;8.00
62778;PMS7003;48821;48.796;2.396;2022-11-20T11:18:08;9.00;8.50;7.50
62778;PMS7003;48821;48.796;2.396;2022-11-20T11:19:20;10.00;8.25;6.25
62778;PMS7003;48821;48.796;2.396;2022-11-20T11:20:30;10.00;8.50;6.75
62778;PMS7003;48821;48.796;2.396;2022-11-20T11:21:52;8.00;8.00;7.00
62778;PMS7003;48821;48.796;2.396;2022-11-20T11:23:05;11.75;9.00;6.75
62778;PMS7003;48821;48.796;2.396;2022-11-20T11:24:32;9.00;9.00;7.00
62778;PMS7003;48821;48.796;2.396;2022-11-20T11:25:42;7.50;7.00;6.25
62778;PMS7003;48821;48.796;2.396;2022-11-20T11:27:11;10.00;8.00;6.00
62778;PMS7003;48821;48.796;2.396;2022-11-20T11:28:23;9.50;7.50;6.75
62778;PMS7003;48821;48.796;2.396;2022-11-20T11:29:37;8.25;8.25;6.25
62778;PMS7003;48821;48.796;2.396;2022-11-20T11:30:47;9.75;9.00;7.50
62778;PMS7003;48821;48.796;2.396;2022-11-20T11:32:07;11.50;10.00;8.00
62778;PMS7003;48821;48.796;2.396;2022-11-20T11:33:29;11.25;9.25;7.50
62778;PMS7003;48821;48.796;2.396;2022-11-20T11:34:58;5.50;5.50;5.00
62778;PMS7003;48821;48.796;2.396;2022-11-20T11:36:16;6.25;6.25;5.00
62778;PMS7003;48821;48.796;2.396;2022-11-20T11:37:36;7.25;6.75;5.50
62778;PMS7003;48821;48.796;2.396;2022-11-20T11:38:50;9.00;7.25;6.00
62778;PMS7003;48821;48.796;2.396;2022-11-20T11:40:03;10.75;6.00;5.00
62778;PMS7003;48821;48.796;2.396;2022-11-20T11:41:24;8.00;8.00;5.00
62778;PMS7003;48821;48.796;2.396;2022-11-20T11:42:42;8.00;6.50;4.50
62778;PMS7003;48821;48.796;2.396;2022-11-20T11:43:55;8.50;6.25;5.00
62778;PMS7003;48821;48.796;2.396;2022-11-20T11:45:28;5.75;5.50;5.00
62778;PMS7003;48821;48.796;2.396;2022-11-20T11:46:39;9.25;9.00;6.00
62778;PMS7003;48821;48.796;2.396;2022-11-20T11:48:00;7.50;7.50;6.00
62778;PMS7003;48821;48.796;2.396;2022-11-20T11:49:15;10.00;8.75;7.00
62778;PMS7003;48821;48.796;2.396;2022-11-20T11:50:28;8.50;6.75;5.50
62778;PMS7003;48821;48.796;2.396;2022-11-20T11:51:50;6.00;6.00;5.25
62778;PMS7003;48821;48.796;2.396;2022-11-20T11:53:20;6.00;6.00;5.00
62778;PMS7003;48821;48.796;2.396;2022-11-20T11:54:50;6.25;6.25;5.00
62778;PMS7003;48821;48.796;2.396;2022-11-20T11:56:05;5.75;5.75;5.00
62778;PMS7003;48821;48.796;2.396;2022-11-20T12:00:10;6.25;6.25;5.25
62778;PMS7003;48821;48.796;2.396;2022-11-20T12:04:02;5.00;4.00;3.00
62778;PMS7003;48821;48.796;2.396;2022-11-20T12:06:39;4.50;3.00;2.00
62778;PMS7003;48821;48.796;2.396;2022-11-20T12:07:57;6.75;4.75;4.50
62778;PMS7003;48821;48.796;2.396;2022-11-20T12:09:13;5.00;5.00;4.00
62778;PMS7003;48821;48.796;2.396;2022-11-20T12:12:15;7.75;6.00;4.50
62778;PMS7003;48821;48.796;2.396;2022-11-20T12:14:44;6.50;5.00;4.00
62778;PMS7003;48821;48.796;2.396;2022-11-20T12:15:57;6.00;4.00;4.00
62778;PMS7003;48821;48.796;2.396;2022-11-20T12:17:11;4.25;4.00;3.00
62778;PMS7003;48821;48.796;2.396;2022-11-20T12:18:23;5.25;4.00;4.00
62778;PMS7003;48821;48.796;2.396;2022-11-20T12:19:34;4.75;4.75;4.00
62778;PMS7003;48821;48.796;2.396;2022-11-20T12:20:46;6.25;5.00;5.00
62778;PMS7003;48821;48.796;2.396;2022-11-20T12:33:47;6.00;5.00;4.00
62778;PMS7003;48821;48.796;2.396;2022-11-20T12:35:12;7.25;6.25;5.25
62778;PMS7003;48821;48.796;2.396;2022-11-20T12:39:35;6.00;6.00;5.00
62778;PMS7003;48821;48.796;2.396;2022-11-20T12:49:13;8.00;6.75;6.00
62778;PMS7003;48821;48.796;2.396;2022-11-20T12:52:21;7.00;7.00;6.00
62778;PMS7003;48821;48.796;2.396;2022-11-20T13:06:51;6.50;6.50;5.25
62778;PMS7003;48821;48.796;2.396;2022-11-20T13:08:02;6.00;6.00;5.00
62778;PMS7003;48821;48.796;2.396;2022-11-20T13:09:14;7.00;7.00;5.50
62778;PMS7003;48821;48.796;2.396;2022-11-20T13:10:46;7.50;6.50;4.00
62778;PMS7003;48821;48.796;2.396;2022-11-20T13:12:04;6.50;6.50;6.00
62778;PMS7003;48821;48.796;2.396;2022-11-20T13:14:37;8.00;8.00;6.00
62778;PMS7003;48821;48.796;2.396;2022-11-20T13:15:59;8.00;8.00;6.00
62778;PMS7003;48821;48.796;2.396;2022-11-20T13:17:28;8.00;8.00;5.50
62778;PMS7003;48821;48.796;2.396;2022-11-20T13:18:50;7.00;6.00;4.00
62778;PMS7003;48821;48.796;2.396;2022-11-20T13:20:01;4.75;3.50;2.25
62778;PMS7003;48821;48.796;2.396;2022-11-20T13:21:16;7.00;6.25;5.25
62778;PMS7003;48821;48.796;2.396;2022-11-20T13:22:54;8.00;6.75;5.75
62778;PMS7003;48821;48.796;2.396;2022-11-20T13:24:07;7.75;7.50;6.00
62778;PMS7003;48821;48.796;2.396;2022-11-20T13:26:44;12.00;7.00;5.75
62778;PMS7003;48821;48.796;2.396;2022-11-20T13:27:55;10.00;10.00;8.00
62778;PMS7003;48821;48.796;2.396;2022-11-20T13:29:09;9.00;7.00;6.00
62778;PMS7003;48821;48.796;2.396;2022-11-20T13:30:25;8.75;8.75;7.00
62778;PMS7003;48821;48.796;2.396;2022-11-20T13:31:38;6.75;6.75;5.00
62778;PMS7003;48821;48.796;2.396;2022-11-20T13:33:08;6.50;6.00;5.00
62778;PMS7003;48821;48.796;2.396;2022-11-20T13:34:35;7.50;6.00;5.25
62778;PMS7003;48821;48.796;2.396;2022-11-20T13:35:54;6.25;5.50;5.00
62778;PMS7003;48821;48.796;2.396;2022-11-20T13:37:23;10.75;8.00;6.00
62778;PMS7003;48821;48.796;2.396;2022-11-20T13:38:40;9.50;8.50;6.25
62778;PMS7003;48821;48.796;2.396;2022-11-20T13:40:04;6.00;4.75;4.50
62778;PMS7003;48821;48.796;2.396;2022-11-20T13:41:24;8.25;7.25;6.00
62778;PMS7003;48821;48.796;2.396;2022-11-20T13:42:45;8.25;7.00;6.00
62778;PMS7003;48821;48.796;2.396;2022-11-20T13:44:09;6.75;6.00;5.00
62778;PMS7003;48821;48.796;2.396;2022-11-20T13:45:22;7.00;7.00;5.50
62778;PMS7003;48821;48.796;2.396;2022-11-20T13:46:38;7.00;6.00;5.00
62778;PMS7003;48821;48.796;2.396;2022-11-20T13:47:54;7.00;6.50;6.00
62778;PMS7003;48821;48.796;2.396;2022-11-20T13:49:06;7.25;7.00;5.50
62778;PMS7003;48821;48.796;2.396;2022-11-20T13:50:19;8.75;7.25;5.00
62778;PMS7003;48821;48.796;2.396;2022-11-20T13:51:48;7.00;5.25;4.50
62778;PMS7003;48821;48.796;2.396;2022-11-20T13:53:05;7.75;7.00;5.00
62778;PMS7003;48821;48.796;2.396;2022-11-20T13:54:29;6.75;6.25;5.00
62778;PMS7003;48821;48.796;2.396;2022-11-20T14:00:41;6.00;6.00;5.00
62778;PMS7003;48821;48.796;2.396;2022-11-20T14:01:55;7.50;5.75;4.00
62778;PMS7003;48821;48.796;2.396;2022-11-20T14:04:18;8.50;6.00;5.00
62778;PMS7003;48821;48.796;2.396;2022-11-20T14:05:36;6.00;6.00;5.50
62778;PMS7003;48821;48.796;2.396;2022-11-20T14:06:50;7.25;7.00;6.00
62778;PMS7003;48821;48.796;2.396;2022-11-20T14:08:00;7.50;7.50;6.50
62778;PMS7003;48821;48.796;2.396;2022-11-20T14:11:17;10.75;9.50;7.00
62778;PMS7003;48821;48.796;2.396;2022-11-20T14:12:34;8.50;8.50;7.00
62778;PMS7003;48821;48.796;2.396;2022-11-20T14:13:52;10.50;8.25;6.00
62778;PMS7003;48821;48.796;2.396;2022-11-20T14:15:05;9.50;8.50;6.25
62778;PMS7003;48821;48.796;2.396;2022-11-20T14:16:19;8.50;7.75;6.25
62778;PMS7003;48821;48.796;2.396;2022-11-20T14:17:31;10.75;7.50;7.00
62778;PMS7003;48821;48.796;2.396;2022-11-20T14:18:43;9.00;8.00;6.00
62778;PMS7003;48821;48.796;2.396;2022-11-20T14:19:54;9.75;7.00;6.00
62778;PMS7003;48821;48.796;2.396;2022-11-20T14:21:08;10.50;9.25;7.00
62778;PMS7003;48821;48.796;2.396;2022-11-20T14:22:20;9.50;9.50;7.00
62778;PMS7003;48821;48.796;2.396;2022-11-20T14:23:35;11.00;7.50;6.50
62778;PMS7003;48821;48.796;2.396;2022-11-20T14:24:49;7.50;7.50;6.00
62778;PMS7003;48821;48.796;2.396;2022-11-20T14:26:12;8.75;8.00;6.25
62778;PMS7003;48821;48.796;2.396;2022-11-20T14:27:28;8.25;8.25;6.50
62778;PMS7003;48821;48.796;2.396;2022-11-20T14:28:38;9.75;8.00;6.00
62778;PMS7003;48821;48.796;2.396;2022-11-20T14:29:50;9.50;8.25;6.50
62778;PMS7003;48821;48.796;2.396;2022-11-20T14:31:00;8.00;7.00;6.00
62778;PMS7003;48821;48.796;2.396;2022-11-20T14:32:11;10.00;7.00;5.00
62778;PMS7003;48821;48.796;2.396;2022-11-20T14:33:21;10.00;8.25;6.25
62778;PMS7003;48821;48.796;2.396;2022-11-20T14:34:38;12.50;9.75;8.00
62778;PMS7003;48821;48.796;2.396;2022-11-20T14:35:52;12.00;11.00;8.00
62778;PMS7003;48821;48.796;2.396;2022-11-20T14:37:05;8.25;8.00;6.75
62778;PMS7003;48821;48.796;2.396;2022-11-20T14:38:27;2.75;1.00;0.00
62778;PMS7003;48821;48.796;2.396;2022-11-20T14:39:42;10.00;8.50;6.00
62778;PMS7003;48821;48.796;2.396;2022-11-20T14:41:07;8.50;7.75;6.75
62778;PMS7003;48821;48.796;2.396;2022-11-20T14:42:20;10.50;7.75;6.00
62778;PMS7003;48821;48.796;2.396;2022-11-20T14:43:34;8.25;7.00;4.00
62778;PMS7003;48821;48.796;2.396;2022-11-20T14:44:47;7.25;6.25;5.00
62778;PMS7003;48821;48.796;2.396;2022-11-20T14:46:02;10.75;8.50;6.50
62778;PMS7003;48821;48.796;2.396;2022-11-20T14:47:15;7.25;7.25;6.00
62778;PMS7003;48821;48.796;2.396;2022-11-20T14:48:44;9.50;7.50;6.00
62778;PMS7003;48821;48.796;2.396;2022-11-20T14:49:56;8.50;8.25;6.50
62778;PMS7003;48821;48.796;2.396;2022-11-20T14:51:12;9.25;7.00;6.00
62778;PMS7003;48821;48.796;2.396;2022-11-20T14:52:51;9.00;7.75;7.00
62778;PMS7003;48821;48.796;2.396;2022-11-20T14:54:16;8.25;8.25;7.00
62778;PMS7003;48821;48.796;2.396;2022-11-20T14:55:35;6.50;6.50;5.50
62778;PMS7003;48821;48.796;2.396;2022-11-20T14:57:53;12.00;8.50;6.50
62778;PMS7003;48821;48.796;2.396;2022-11-20T14:58:40;12.25;9.50;7.00
62778;PMS7003;48821;48.796;2.396;2022-11-20T14:59:51;6.00;6.00;5.00
62778;PMS7003;48821;48.796;2.396;2022-11-20T15:01:13;11.75;8.75;7.00
62778;PMS7003;48821;48.796;2.396;2022-11-20T15:02:24;10.75;9.25;6.25
62778;PMS7003;48821;48.796;2.396;2022-11-20T15:03:36;8.50;8.50;7.00
62778;PMS7003;48821;48.796;2.396;2022-11-20T15:04:48;12.00;9.75;7.75
62778;PMS7003;48821;48.796;2.396;2022-11-20T15:06:00;10.50;10.00;8.00
62778;PMS7003;48821;48.796;2.396;2022-11-20T15:07:10;10.50;10.50;7.50
62778;PMS7003;48821;48.796;2.396;2022-11-20T15:08:21;8.75;8.75;7.25
62778;PMS7003;48821;48.796;2.396;2022-11-20T15:09:31;5.75;5.75;3.00
62778;PMS7003;48821;48.796;2.396;2022-11-20T15:10:45;11.25;11.00;8.75
62778;PMS7003;48821;48.796;2.396;2022-11-20T15:11:58;12.75;9.50;7.00
62778;PMS7003;48821;48.796;2.396;2022-11-20T15:13:12;11.25;10.00;7.00
62778;PMS7003;48821;48.796;2.396;2022-11-20T15:14:26;7.00;6.00;5.00
62778;PMS7003;48821;48.796;2.396;2022-11-20T15:15:50;11.50;10.50;7.25
62778;PMS7003;48821;48.796;2.396;2022-11-20T15:17:04;11.25;10.50;8.50
62778;PMS7003;48821;48.796;2.396;2022-11-20T15:18:19;13.00;9.25;6.50
62778;PMS7003;48821;48.796;2.396;2022-11-20T15:19:41;12.25;9.50;8.00
62778;PMS7003;48821;48.796;2.396;2022-11-20T15:20:51;10.75;8.25;6.00
62778;PMS7003;48821;48.796;2.396;2022-11-20T15:22:06;13.00;12.00;8.50
62778;PMS7003;48821;48.796;2.396;2022-11-20T15:23:22;23.00;17.50;14.00
62778;PMS7003;48821;48.796;2.396;2022-11-20T15:24:33;16.25;11.75;9.25
62778;PMS7003;48821;48.796;2.396;2022-11-20T15:25:44;29.25;26.75;19.50
62778;PMS7003;48821;48.796;2.396;2022-11-20T15:26:56;38.00;31.50;21.25
62778;PMS7003;48821;48.796;2.396;2022-11-20T15:28:23;53.00;42.75;29.25
62778;PMS7003;48821;48.796;2.396;2022-11-20T15:29:40;0.75;0.00;0.00
62778;PMS7003;48821;48.796;2.396;2022-11-20T15:30:52;44.50;37.25;25.75
62778;PMS7003;48821;48.796;2.396;2022-11-20T15:32:02;30.00;25.50;16.50
62778;PMS7003;48821;48.796;2.396;2022-11-20T15:33:13;26.00;19.50;13.00
62778;PMS7003;48821;48.796;2.396;2022-11-20T15:34:26;30.50;23.25;17.50
62778;PMS7003;48821;48.796;2.396;2022-11-20T15:35:37;54.00;41.50;27.50
62778;PMS7003;48821;48.796;2.396;2022-11-20T15:36:47;49.00;36.50;23.50
62778;PMS7003;48821;48.796;2.396;2022-11-20T15:37:58;35.50;30.25;19.50
62778;PMS7003;48821;48.796;2.396;2022-11-20T15:39:08;23.25;21.00;13.75
62778;PMS7003;48821;48.796;2.396;2022-11-20T15:40:19;20.00;18.00;13.25
62778;PMS7003;48821;48.796;2.396;2022-11-20T15:41:29;14.50;12.75;9.25
62778;PMS7003;48821;48.796;2.396;2022-11-20T15:42:40;11.25;8.75;6.00
62778;PMS7003;48821;48.796;2.396;2022-11-20T15:44:10;23.75;18.50;11.50
62778;PMS7003;48821;48.796;2.396;2022-11-20T15:45:20;12.00;10.50;8.25
62778;PMS7003;48821;48.796;2.396;2022-11-20T15:46:31;18.00;16.00;15.00
62778;PMS7003;48821;48.796;2.396;2022-11-20T15:47:48;36.25;29.00;19.25
62778;PMS7003;48821;48.796;2.396;2022-11-20T15:48:59;24.75;20.50;13.75
62778;PMS7003;48821;48.796;2.396;2022-11-20T15:50:11;76.75;61.25;34.00
62778;PMS7003;48821;48.796;2.396;2022-11-20T15:51:30;33.75;25.75;18.00
62778;PMS7003;48821;48.796;2.396;2022-11-20T15:52:45;14.25;12.25;9.00
62778;PMS7003;48821;48.796;2.396;2022-11-20T15:53:55;51.25;38.75;25.25
62778;PMS7003;48821;48.796;2.396;2022-11-20T15:55:09;20.25;18.75;13.25
62778;PMS7003;48821;48.796;2.396;2022-11-20T15:56:20;48.00;36.50;21.75
62778;PMS7003;48821;48.796;2.396;2022-11-20T15:57:30;39.75;28.75;15.00
62778;PMS7003;48821;48.796;2.396;2022-11-20T15:58:41;24.00;17.00;9.50
62778;PMS7003;48821;48.796;2.396;2022-11-20T15:59:52;20.25;14.50;8.50
62778;PMS7003;48821;48.796;2.396;2022-11-20T16:01:02;6.00;6.00;4.50
62778;PMS7003;48821;48.796;2.396;2022-11-20T16:02:13;33.25;28.50;14.00
62778;PMS7003;48821;48.796;2.396;2022-11-20T16:03:25;24.25;20.50;12.50
62778;PMS7003;48821;48.796;2.396;2022-11-20T16:04:35;12.00;8.00;6.00
62778;PMS7003;48821;48.796;2.396;2022-11-20T16:05:45;4.50;3.25;2.25
62778;PMS7003;48821;48.796;2.396;2022-11-20T16:06:56;13.50;10.50;6.75
62778;PMS7003;48821;48.796;2.396;2022-11-20T16:08:06;9.75;8.75;7.50
62778;PMS7003;48821;48.796;2.396;2022-11-20T16:09:17;27.00;21.00;13.50
62778;PMS7003;48821;48.796;2.396;2022-11-20T16:10:27;22.75;19.75;15.00
62778;PMS7003;48821;48.796;2.396;2022-11-20T16:11:38;8.00;5.50;4.25
62778;PMS7003;48821;48.796;2.396;2022-11-20T16:12:48;14.25;12.00;7.00
62778;PMS7003;48821;48.796;2.396;2022-11-20T16:14:17;17.75;14.75;8.00
62778;PMS7003;48821;48.796;2.396;2022-11-20T16:16:07;9.75;8.25;6.00
62778;PMS7003;48821;48.796;2.396;2022-11-20T16:17:21;17.75;16.75;12.25
62778;PMS7003;48821;48.796;2.396;2022-11-20T16:18:51;21.00;16.75;12.00
62778;PMS7003;48821;48.796;2.396;2022-11-20T16:20:02;9.00;7.00;6.00
62778;PMS7003;48821;48.796;2.396;2022-11-20T16:21:12;7.50;5.75;4.75
62778;PMS7003;48821;48.796;2.396;2022-11-20T16:22:23;7.00;2.00;2.00
62778;PMS7003;48821;48.796;2.396;2022-11-20T16:23:33;6.25;5.25;4.00
62778;PMS7003;48821;48.796;2.396;2022-11-20T16:24:44;12.25;8.25;7.00
62778;PMS7003;48821;48.796;2.396;2022-11-20T16:25:55;16.25;12.00;9.50
62778;PMS7003;48821;48.796;2.396;2022-11-20T16:27:05;7.00;5.25;5.00
62778;PMS7003;48821;48.796;2.396;2022-11-20T16:28:15;20.00;15.50;11.00
62778;PMS7003;48821;48.796;2.396;2022-11-20T16:29:27;7.50;4.25;3.00
62778;PMS7003;48821;48.796;2.396;2022-11-20T16:30:37;10.00;9.00;7.50
62778;PMS7003;48821;48.796;2.396;2022-11-20T16:31:48;13.50;11.25;9.50
62778;PMS7003;48821;48.796;2.396;2022-11-20T16:32:59;16.00;14.50;12.00
62778;PMS7003;48821;48.796;2.396;2022-11-20T16:34:10;22.50;21.50;18.00
62778;PMS7003;48821;48.796;2.396;2022-11-20T16:35:20;40.75;35.00;24.25
62778;PMS7003;48821;48.796;2.396;2022-11-20T16:36:30;15.00;12.50;9.50
62778;PMS7003;48821;48.796;2.396;2022-11-20T16:37:41;24.00;18.50;12.75
62778;PMS7003;48821;48.796;2.396;2022-11-20T16:38:53;23.00;21.00;15.00
62778;PMS7003;48821;48.796;2.396;2022-11-20T16:40:07;24.75;19.50;15.75
62778;PMS7003;48821;48.796;2.396;2022-11-20T16:41:18;27.00;24.25;18.00
62778;PMS7003;48821;48.796;2.396;2022-11-20T16:42:31;22.25;22.25;17.50
62778;PMS7003;48821;48.796;2.396;2022-11-20T16:43:43;25.25;23.25;16.00
62778;PMS7003;48821;48.796;2.396;2022-11-20T16:44:58;22.25;17.75;13.75
62778;PMS7003;48821;48.796;2.396;2022-11-20T16:46:08;37.50;27.75;19.75
62778;PMS7003;48821;48.796;2.396;2022-11-20T16:47:19;34.00;30.00;22.00
62778;PMS7003;48821;48.796;2.396;2022-11-20T16:48:29;22.75;21.00;17.25
62778;PMS7003;48821;48.796;2.396;2022-11-20T16:49:40;16.00;15.50;11.00
62778;PMS7003;48821;48.796;2.396;2022-11-20T16:50:51;17.25;13.50;9.00
62778;PMS7003;48821;48.796;2.396;2022-11-20T16:52:02;14.00;11.50;9.50
62778;PMS7003;48821;48.796;2.396;2022-11-20T16:53:13;12.75;11.00;8.75
62778;PMS7003;48821;48.796;2.396;2022-11-20T16:54:23;10.75;7.75;5.25
62778;PMS7003;48821;48.796;2.396;2022-11-20T16:55:34;9.25;8.00;6.00
62778;PMS7003;48821;48.796;2.396;2022-11-20T16:56:44;11.00;8.50;7.00
62778;PMS7003;48821;48.796;2.396;2022-11-20T16:57:56;8.00;8.00;5.00
62778;PMS7003;48821;48.796;2.396;2022-11-20T16:59:07;11.75;10.00;7.00
62778;PMS7003;48821;48.796;2.396;2022-11-20T17:00:17;14.50;13.75;9.00
62778;PMS7003;48821;48.796;2.396;2022-11-20T17:01:28;14.00;10.00;7.00
62778;PMS7003;48821;48.796;2.396;2022-11-20T17:02:40;12.00;9.25;7.00
62778;PMS7003;48821;48.796;2.396;2022-11-20T17:03:54;12.00;10.25;7.00
62778;PMS7003;48821;48.796;2.396;2022-11-20T17:05:13;11.25;8.25;6.50
62778;PMS7003;48821;48.796;2.396;2022-11-20T17:06:25;13.00;10.25;8.00
62778;PMS7003;48821;48.796;2.396;2022-11-20T17:07:37;12.75;11.75;8.50
62778;PMS7003;48821;48.796;2.396;2022-11-20T17:08:48;14.25;10.75;8.25
62778;PMS7003;48821;48.796;2.396;2022-11-20T17:09:58;15.00;11.50;9.00
62778;PMS7003;48821;48.796;2.396;2022-11-20T17:11:10;10.75;9.75;7.75
62778;PMS7003;48821;48.796;2.396;2022-11-20T17:12:22;10.50;9.00;7.00
62778;PMS7003;48821;48.796;2.396;2022-11-20T17:13:33;13.75;12.50;9.25
62778;PMS7003;48821;48.796;2.396;2022-11-20T17:14:44;13.00;9.25;7.00
62778;PMS7003;48821;48.796;2.396;2022-11-20T17:15:59;17.75;14.25;9.50
62778;PMS7003;48821;48.796;2.396;2022-11-20T17:17:10;14.50;14.00;10.00
62778;PMS7003;48821;48.796;2.396;2022-11-20T17:18:21;13.00;12.75;9.50
62778;PMS7003;48821;48.796;2.396;2022-11-20T17:19:32;13.75;11.50;8.25
62778;PMS7003;48821;48.796;2.396;2022-11-20T17:20:45;18.50;17.25;13.00
62778;PMS7003;48821;48.796;2.396;2022-11-20T17:22:01;13.00;12.75;11.00
62778;PMS7003;48821;48.796;2.396;2022-11-20T17:23:11;16.75;16.75;11.00
62778;PMS7003;48821;48.796;2.396;2022-11-20T17:24:21;25.50;23.25;16.75
62778;PMS7003;48821;48.796;2.396;2022-11-20T17:25:32;26.50;24.75;17.50
62778;PMS7003;48821;48.796;2.396;2022-11-20T17:26:43;24.75;20.75;15.00
62778;PMS7003;48821;48.796;2.396;2022-11-20T17:27:54;24.50;20.00;15.00
62778;PMS7003;48821;48.796;2.396;2022-11-20T17:29:05;18.25;16.50;13.25
62778;PMS7003;48821;48.796;2.396;2022-11-20T17:30:19;11.00;7.75;6.75
62778;PMS7003;48821;48.796;2.396;2022-11-20T17:31:29;21.50;19.25;13.50
62778;PMS7003;48821;48.796;2.396;2022-11-20T17:32:41;13.00;12.00;10.00
62778;PMS7003;48821;48.796;2.396;2022-11-20T17:33:55;12.00;8.75;6.00
62778;PMS7003;48821;48.796;2.396;2022-11-20T17:35:09;12.00;9.00;6.25
62778;PMS7003;48821;48.796;2.396;2022-11-20T17:36:19;12.25;11.75;8.00
62778;PMS7003;48821;48.796;2.396;2022-11-20T17:37:31;28.50;24.75;17.25